Time;durP1;ratioP1;P1;durP2;ratioP2;P2;SDS_P1;SDS_P2;PMS_P1;PMS_P2;Temp;Humidity;BMP_temperature;BMP_pressure;BME280_temperature;BME280_humidity;BME280_pressure;Samples;Min_cycle;Max_cycle;Signal;HPM_P1;HPM_P2
2022/09/11 00:01:20;;;;;;;9.65;3.28;;;;;;;18.82;91.64;101489.63;7389166;19;20061;-85
2022/09/11 00:03:48;;;;;;;13.68;7.32;;;;;;;18.79;91.78;101488.13;7385459;19;20382;-83
2022/09/11 00:06:19;;;;;;;8.02;3.95;;;;;;;18.82;92.27;101486.13;7387312;19;20663;-78
2022/09/11 00:08:59;;;;;;;11.80;3.20;;;;;;;18.81;92.05;101479.97;7388245;19;20539;-83
2022/09/11 00:11:34;;;;;;;11.15;3.55;;;;;;;18.79;91.17;101485.47;7392113;19;20015;-84
2022/09/11 00:14:02;;;;;;;9.10;4.78;;;;;;;18.77;91.88;101484.03;7388962;19;20014;-84
2022/09/11 00:16:33;;;;;;;9.60;4.35;;;;;;;18.76;91.76;101487.69;7391234;19;20086;-84
2022/09/11 00:19:06;;;;;;;8.65;4.07;;;;;;;18.74;91.58;101489.75;7389534;19;20491;-84
2022/09/11 00:21:33;;;;;;;8.10;3.77;;;;;;;18.71;92.24;101488.28;7391352;19;20070;-83
2022/09/11 00:24:03;;;;;;;8.57;4.57;;;;;;;18.69;92.23;101484.97;7389288;19;20822;-82
2022/09/11 00:26:31;;;;;;;12.43;4.57;;;;;;;18.70;92.65;101491.13;7389486;19;20043;-84
2022/09/11 00:29:00;;;;;;;8.73;5.13;;;;;;;18.69;92.39;101476.97;7387886;19;20006;-82
2022/09/11 00:31:29;;;;;;;11.38;3.72;;;;;;;18.69;92.30;101476.97;7390081;19;20349;-84
2022/09/11 00:33:57;;;;;;;8.55;4.03;;;;;;;18.68;92.52;101485.19;7388849;19;20011;-84
2022/09/11 00:36:30;;;;;;;11.57;4.15;;;;;;;18.66;92.25;101489.84;7392022;19;20030;-85
2022/09/11 00:38:58;;;;;;;15.68;7.53;;;;;;;18.65;92.41;101485.53;7389582;19;20014;-84
2022/09/11 00:41:27;;;;;;;12.25;4.50;;;;;;;18.64;92.75;101483.91;7390289;19;20464;-84
2022/09/11 00:43:56;;;;;;;7.82;4.50;;;;;;;18.62;92.84;101481.41;7387773;19;20026;-83
2022/09/11 00:46:30;;;;;;;9.15;4.45;;;;;;;18.60;92.68;101477.28;7387009;19;21113;-83
2022/09/11 00:49:00;;;;;;;13.55;4.85;;;;;;;18.57;92.38;101472.34;7387914;19;20389;-84
2022/09/11 00:51:32;;;;;;;8.40;4.28;;;;;;;18.55;92.84;101482.34;7387020;19;20043;-84
2022/09/11 00:54:02;;;;;;;9.73;4.72;;;;;;;18.54;92.74;101480.72;7385433;19;20057;-84
2022/09/11 00:56:34;;;;;;;9.98;4.47;;;;;;;18.53;92.93;101482.53;7388519;19;20094;-83
2022/09/11 00:59:03;;;;;;;9.68;5.22;;;;;;;18.51;92.68;101481.06;7383611;19;20011;-83
2022/09/11 01:01:32;;;;;;;10.73;4.38;;;;;;;18.50;92.96;101476.72;7385926;19;20547;-83
2022/09/11 01:04:03;;;;;;;11.27;4.63;;;;;;;18.50;93.15;101490.88;7385095;19;20497;-84
2022/09/11 01:06:31;;;;;;;12.07;4.55;;;;;;;18.49;92.97;101485.75;7381953;19;20090;-82
2022/09/11 01:08:59;;;;;;;9.23;4.55;;;;;;;18.49;93.26;101483.09;7382977;19;20589;-82
2022/09/11 01:11:40;;;;;;;6.75;4.40;;;;;;;18.47;92.81;101485.94;7387777;19;20025;-82
2022/09/11 01:14:14;;;;;;;8.70;4.53;;;;;;;18.47;93.49;101488.59;7383420;19;20043;-82
2022/09/11 01:16:48;;;;;;;7.25;3.78;;;;;;;18.48;93.20;101486.78;7386449;19;20074;-83
2022/09/11 01:19:36;;;;;;;10.55;4.90;;;;;;;18.42;93.23;101480.34;7386809;19;20367;-82
2022/09/11 01:22:09;;;;;;;11.45;4.93;;;;;;;18.39;93.41;101483.38;7385132;19;20019;-82
2022/09/11 01:24:46;;;;;;;11.35;4.85;;;;;;;18.36;93.29;101476.59;7385111;19;20078;-83
2022/09/11 01:27:20;;;;;;;8.18;4.18;;;;;;;18.35;93.35;101480.25;7385648;19;20014;-83
2022/09/11 01:29:58;;;;;;;13.60;4.68;;;;;;;18.32;93.28;101482.47;7386638;19;20578;-83
2022/09/11 01:32:34;;;;;;;10.40;5.13;;;;;;;18.28;93.65;101476.72;7387415;19;20102;-83
2022/09/11 01:35:11;;;;;;;12.07;5.40;;;;;;;18.26;94.08;101478.72;7385903;19;20450;-83
2022/09/11 01:37:46;;;;;;;13.77;6.07;;;;;;;18.24;94.14;101471.91;7384922;19;20032;-82
2022/09/11 01:40:23;;;;;;;11.30;5.32;;;;;;;18.20;94.00;101474.13;7386053;19;20006;-83
2022/09/11 01:42:54;;;;;;;13.25;5.82;;;;;;;18.20;94.43;101473.31;7383075;19;20027;-82
2022/09/11 01:45:24;;;;;;;12.48;6.22;;;;;;;18.18;94.34;101478.03;7384582;19;20043;-83
2022/09/11 01:47:54;;;;;;;10.52;5.50;;;;;;;18.16;94.57;101472.88;7384983;19;20360;-84
2022/09/11 01:50:23;;;;;;;13.65;6.50;;;;;;;18.15;93.93;101471.22;7384303;19;20465;-82
2022/09/11 01:52:57;;;;;;;9.50;6.05;;;;;;;18.10;94.39;101476.28;7386571;19;20028;-83
2022/09/11 01:55:33;;;;;;;11.95;5.75;;;;;;;18.07;94.50;101470.50;7384340;19;20014;-83
2022/09/11 01:58:05;;;;;;;12.63;6.00;;;;;;;18.05;94.82;101478.66;7380756;19;20019;-83
2022/09/11 02:00:35;;;;;;;11.43;5.90;;;;;;;18.02;94.93;101476.38;7384527;19;20167;-82
2022/09/11 02:03:11;;;;;;;14.98;6.20;;;;;;;17.99;94.99;101474.06;7384270;19;20011;-83
2022/09/11 02:05:45;;;;;;;11.35;6.38;;;;;;;18.00;94.95;101474.91;7383693;19;20006;-83
2022/09/11 02:08:22;;;;;;;10.90;6.47;;;;;;;18.00;95.30;101474.91;7386637;19;20021;-84
2022/09/11 02:10:53;;;;;;;13.02;6.25;;;;;;;18.01;95.68;101476.56;7385612;19;20045;-82
2022/09/11 02:13:28;;;;;;;9.32;6.13;;;;;;;18.00;95.55;101477.56;7381810;19;20018;-83
2022/09/11 02:16:03;;;;;;;11.35;6.10;;;;;;;18.00;95.43;101481.06;7379091;19;20162;-83
2022/09/11 02:18:42;;;;;;;12.68;6.05;;;;;;;17.99;95.09;101487.38;7383382;19;20022;-82
2022/09/11 02:21:11;;;;;;;14.52;6.90;;;;;;;17.99;94.95;101482.06;7385127;19;20078;-83
2022/09/11 02:23:41;;;;;;;11.25;7.15;;;;;;;17.98;95.22;101475.06;7386257;19;20372;-82
2022/09/11 02:26:12;;;;;;;13.20;6.85;;;;;;;17.98;95.47;101475.06;7382866;19;20433;-84
2022/09/11 02:28:40;;;;;;;14.23;6.72;;;;;;;17.95;95.37;101473.63;7389840;19;20010;-83
2022/09/11 02:31:07;;;;;;;12.73;6.65;;;;;;;17.97;95.41;101475.28;7390771;19;20388;-84
2022/09/11 02:33:36;;;;;;;12.52;6.88;;;;;;;17.96;95.54;101471.78;7393357;19;20015;-84
2022/09/11 02:36:19;;;;;;;18.90;7.93;;;;;;;17.94;95.64;101477.28;7390977;19;20018;-83
2022/09/11 02:38:54;;;;;;;17.60;6.47;;;;;;;17.93;95.50;101480.97;7389495;19;20014;-84
2022/09/11 02:41:28;;;;;;;16.02;7.30;;;;;;;17.95;95.53;101475.47;7392538;19;20051;-85
2022/09/11 02:44:02;;;;;;;15.57;7.93;;;;;;;17.95;95.60;101478.13;7389282;19;20039;-83
2022/09/11 02:46:34;;;;;;;12.63;6.82;;;;;;;17.94;95.54;101471.13;7394542;19;20019;-84
2022/09/11 02:49:06;;;;;;;13.55;7.35;;;;;;;17.95;95.49;101476.28;7391358;19;20006;-84
2022/09/11 02:51:43;;;;;;;13.60;7.05;;;;;;;17.95;95.69;101472.78;7392280;19;20015;-84
2022/09/11 02:54:18;;;;;;;14.85;7.65;;;;;;;17.94;95.69;101473.81;7391280;19;20036;-82
2022/09/11 02:56:55;;;;;;;15.40;7.55;;;;;;;17.94;95.80;101471.13;7392352;19;20014;-82
2022/09/11 02:59:30;;;;;;;14.82;8.32;;;;;;;17.92;95.48;101474.00;7393389;19;20033;-82
2022/09/11 03:02:00;;;;;;;12.30;8.07;;;;;;;17.91;95.78;101467.03;7392763;19;20015;-85
2022/09/11 03:04:30;;;;;;;18.30;8.30;;;;;;;17.91;95.82;101480.34;7390488;19;20067;-84
2022/09/11 03:06:58;;;;;;;10.35;6.88;;;;;;;17.89;95.33;101482.34;7390337;19;20049;-83
2022/09/11 03:09:27;;;;;;;13.43;7.32;;;;;;;17.88;96.03;101475.38;7392079;19;20022;-83
2022/09/11 03:11:55;;;;;;;11.23;7.28;;;;;;;17.88;95.81;101486.00;7393742;19;20003;-84
2022/09/11 03:14:22;;;;;;;17.10;8.52;;;;;;;17.88;95.80;101479.84;7389969;19;20015;-83
2022/09/11 03:16:50;;;;;;;11.60;7.60;;;;;;;17.88;96.18;101475.38;7392656;19;20019;-84
2022/09/11 03:19:18;;;;;;;14.43;7.95;;;;;;;17.88;95.88;101470.03;7390048;19;20362;-84
2022/09/11 03:21:47;;;;;;;14.73;8.10;;;;;;;17.87;95.78;101473.72;7392740;19;20010;-82
2022/09/11 03:24:15;;;;;;;13.52;7.85;;;;;;;17.87;95.72;101472.91;7391289;19;20038;-84
2022/09/11 03:26:43;;;;;;;13.85;7.80;;;;;;;17.85;95.50;101483.72;7391154;19;20021;-83
2022/09/11 03:29:10;;;;;;;13.77;7.30;;;;;;;17.84;95.72;101483.91;7388281;19;20020;-84
2022/09/11 03:31:38;;;;;;;13.63;7.50;;;;;;;17.85;95.74;101482.91;7392208;19;20046;-83
2022/09/11 03:34:07;;;;;;;14.68;8.90;;;;;;;17.83;95.90;101477.75;7375803;19;20646;-82
2022/09/11 03:36:35;;;;;;;15.35;7.82;;;;;;;17.85;95.97;101478.41;7389143;19;20033;-83
2022/09/11 03:39:03;;;;;;;15.30;8.25;;;;;;;17.85;95.83;101477.56;7389167;19;20539;-82
2022/09/11 03:41:31;;;;;;;15.77;7.88;;;;;;;17.85;95.74;101477.56;7394253;19;20032;-82
2022/09/11 03:43:59;;;;;;;16.50;7.57;;;;;;;17.84;95.65;101473.25;7388924;19;20022;-82
2022/09/11 03:46:26;;;;;;;15.00;7.45;;;;;;;17.84;95.51;101470.59;7389595;19;20034;-83
2022/09/11 03:48:54;;;;;;;11.88;7.38;;;;;;;17.82;95.72;101468.13;7390642;19;20368;-83
2022/09/11 03:51:21;;;;;;;18.88;11.25;;;;;;;17.81;96.18;101473.63;7390447;19;20018;-82
2022/09/11 03:53:48;;;;;;;23.38;9.73;;;;;;;17.82;96.52;101475.28;7387123;19;20090;-85
2022/09/11 03:56:16;;;;;;;20.67;10.05;;;;;;;17.81;96.71;101471.81;7389564;19;20025;-84
2022/09/11 03:58:43;;;;;;;19.55;10.05;;;;;;;17.81;96.98;101468.31;7384262;19;20440;-83
2022/09/11 04:01:13;;;;;;;21.40;11.00;;;;;;;17.82;96.91;101472.63;7386696;19;20102;-83
2022/09/11 04:03:41;;;;;;;26.77;10.98;;;;;;;17.82;97.21;101478.78;7386238;19;20406;-83
2022/09/11 04:06:09;;;;;;;20.75;11.20;;;;;;;17.84;97.42;101460.78;7389369;19;20014;-85
2022/09/11 04:08:38;;;;;;;29.55;11.05;;;;;;;17.87;98.04;101473.72;7388686;19;20010;-84
2022/09/11 04:11:06;;;;;;;21.40;10.73;;;;;;;17.88;97.51;101469.22;7389113;19;20018;-83
2022/09/11 04:13:36;;;;;;;22.83;11.23;;;;;;;17.88;97.83;101467.38;7387209;19;20010;-84
2022/09/11 04:16:07;;;;;;;29.25;11.55;;;;;;;17.86;97.89;101463.25;7389114;19;20346;-83
2022/09/11 04:18:37;;;;;;;26.25;11.70;;;;;;;17.85;97.69;101458.94;7386572;19;20022;-84
2022/09/11 04:21:05;;;;;;;25.42;13.05;;;;;;;17.84;97.60;101462.59;7388055;19;20017;-83
2022/09/11 04:23:33;;;;;;;32.95;16.90;;;;;;;17.84;98.19;101465.25;7388818;19;20006;-83
2022/09/11 04:26:00;;;;;;;24.92;12.75;;;;;;;17.83;98.08;101467.09;7389051;19;20081;-83
2022/09/11 04:28:30;;;;;;;30.08;13.13;;;;;;;17.81;98.60;101466.47;7385611;19;20014;-83
2022/09/11 04:31:01;;;;;;;27.70;12.80;;;;;;;17.81;98.40;101469.13;7388657;19;20024;-83
2022/09/11 04:33:28;;;;;;;26.90;12.15;;;;;;;17.79;98.64;101471.16;7388783;19;20026;-82
2022/09/11 04:35:56;;;;;;;34.47;12.90;;;;;;;17.78;98.89;101480.13;7383963;19;20017;-83
2022/09/11 04:38:23;;;;;;;78.40;22.90;;;;;;;17.77;99.14;101475.03;7389446;19;20017;-83
2022/09/11 04:40:52;;;;;;;25.20;13.60;;;;;;;17.81;99.92;101476.28;7389864;19;20035;-84
2022/09/11 04:43:19;;;;;;;28.45;13.30;;;;;;;17.80;99.80;101470.16;7387642;19;20049;-84
2022/09/11 04:45:46;;;;;;;26.40;11.68;;;;;;;17.79;98.90;101462.34;7389022;19;20010;-84
2022/09/11 04:48:13;;;;;;;25.98;13.10;;;;;;;17.78;99.20;101473.97;7388756;19;20015;-83
2022/09/11 04:50:41;;;;;;;30.80;12.68;;;;;;;17.76;99.10;101470.69;7386638;19;20451;-83
2022/09/11 04:53:08;;;;;;;26.40;13.65;;;;;;;17.75;99.06;101461.06;7388670;19;20472;-83
2022/09/11 04:55:36;;;;;;;27.20;13.70;;;;;;;17.75;99.12;101467.22;7387705;19;20357;-83
2022/09/11 04:58:03;;;;;;;25.10;12.82;;;;;;;17.76;99.09;101460.06;7383632;19;20022;-82
2022/09/11 05:00:31;;;;;;;24.15;11.57;;;;;;;17.76;98.90;101462.72;7387040;19;20018;-82
2022/09/11 05:02:58;;;;;;;27.60;12.73;;;;;;;17.74;98.72;101470.03;7386993;19;20035;-82
2022/09/11 05:05:25;;;;;;;28.75;13.23;;;;;;;17.72;98.56;101470.25;7384943;19;20022;-85
2022/09/11 05:07:53;;;;;;;23.52;12.57;;;;;;;17.71;99.03;101465.09;7385949;19;20041;-84
2022/09/11 05:10:20;;;;;;;26.33;12.82;;;;;;;17.71;98.64;101478.41;7387222;19;20077;-84
2022/09/11 05:12:47;;;;;;;27.42;14.18;;;;;;;17.70;99.26;101482.91;7384115;19;20018;-82
2022/09/11 05:15:15;;;;;;;29.55;13.95;;;;;;;17.70;99.47;101482.91;7387040;19;20018;-83
2022/09/11 05:17:42;;;;;;;28.27;14.40;;;;;;;17.70;99.43;101492.72;7386857;19;20014;-83
2022/09/11 05:20:09;;;;;;;30.38;13.43;;;;;;;17.68;99.46;101487.56;7385580;19;20080;-83
2022/09/11 05:22:37;;;;;;;26.67;14.18;;;;;;;17.68;99.61;101492.06;7386144;19;20049;-84
2022/09/11 05:25:05;;;;;;;27.27;13.05;;;;;;;17.66;99.35;101494.94;7386748;19;20349;-82
2022/09/11 05:27:33;;;;;;;27.60;13.93;;;;;;;17.67;99.71;101493.94;7380754;19;20543;-83
2022/09/11 05:30:01;;;;;;;30.02;13.95;;;;;;;17.67;99.84;101491.28;7386096;19;20626;-82
2022/09/11 05:32:28;;;;;;;27.90;13.75;;;;;;;17.66;99.57;101488.78;7385802;19;20368;-85
2022/09/11 05:34:55;;;;;;;21.27;12.65;;;;;;;17.68;99.77;101495.56;7385938;19;20018;-84
2022/09/11 05:37:23;;;;;;;30.80;13.90;;;;;;;17.68;100.00;101492.06;7385586;19;20498;-84
2022/09/11 05:39:50;;;;;;;25.95;13.23;;;;;;;17.67;99.88;101488.59;7387836;19;20425;-83
2022/09/11 05:42:19;;;;;;;32.22;15.13;;;;;;;17.66;100.00;101494.94;7385233;19;20018;-84
2022/09/11 05:44:47;;;;;;;31.30;14.40;;;;;;;17.65;100.00;101489.78;7386256;19;20380;-82
2022/09/11 05:47:14;;;;;;;31.98;15.55;;;;;;;17.65;100.00;101498.59;7383596;19;20048;-83
2022/09/11 05:49:42;;;;;;;36.03;15.93;;;;;;;17.64;100.00;101491.63;7388273;19;20044;-83
2022/09/11 05:52:09;;;;;;;29.67;15.75;;;;;;;17.66;100.00;101494.09;7385553;19;20352;-84
2022/09/11 05:54:36;;;;;;;31.73;14.35;;;;;;;17.66;100.00;101502.09;7383966;19;20021;-85
2022/09/11 05:57:04;;;;;;;33.28;15.40;;;;;;;17.66;100.00;101497.59;7383183;19;20018;-82
2022/09/11 05:59:33;;;;;;;33.83;14.75;;;;;;;17.68;100.00;101502.72;7383403;19;20011;-84
2022/09/11 06:02:01;;;;;;;33.20;15.40;;;;;;;17.70;100.00;101493.56;7387482;19;20006;-82
2022/09/11 06:04:29;;;;;;;36.17;18.05;;;;;;;17.71;100.00;101489.06;7389151;19;20010;-82
2022/09/11 06:06:56;;;;;;;40.75;16.75;;;;;;;17.71;100.00;101495.22;7391816;19;20018;-82
2022/09/11 06:09:24;;;;;;;36.55;17.95;;;;;;;17.69;99.97;101499.06;7390756;19;20017;-83
2022/09/11 06:11:52;;;;;;;39.53;17.20;;;;;;;17.69;100.00;101501.72;7392120;19;20078;-83
2022/09/11 06:14:20;;;;;;;41.05;17.23;;;;;;;17.68;100.00;101500.06;7390020;19;20011;-81
2022/09/11 06:16:47;;;;;;;36.63;16.80;;;;;;;17.68;100.00;101506.22;7393434;19;20122;-82
2022/09/11 06:19:15;;;;;;;39.67;17.35;;;;;;;17.67;100.00;101503.75;7390625;19;20041;-84
2022/09/11 06:21:43;;;;;;;47.28;20.10;;;;;;;17.70;100.00;101506.03;7391624;19;20062;-84
2022/09/11 06:24:10;;;;;;;42.80;18.05;;;;;;;17.69;100.00;101510.53;7391493;19;20464;-84
2022/09/11 06:26:38;;;;;;;42.58;18.10;;;;;;;17.69;100.00;101507.88;7392199;19;20025;-83
2022/09/11 06:29:06;;;;;;;44.10;17.60;;;;;;;17.71;100.00;101518.34;7388925;19;20014;-83
2022/09/11 06:31:34;;;;;;;49.42;19.52;;;;;;;17.71;100.00;101502.38;7390977;19;20392;-84
2022/09/11 06:34:01;;;;;;;45.42;19.08;;;;;;;17.71;100.00;101505.84;7389702;19;20014;-84
2022/09/11 06:36:30;;;;;;;47.53;18.77;;;;;;;17.71;100.00;101507.69;7389346;19;20010;-83
2022/09/11 06:38:58;;;;;;;50.33;20.35;;;;;;;17.71;100.00;101503.19;7389607;19;20046;-83
2022/09/11 06:41:26;;;;;;;39.45;18.27;;;;;;;17.74;100.00;101504.66;7392897;19;20070;-84
2022/09/11 06:43:53;;;;;;;41.83;17.58;;;;;;;17.75;100.00;101511.63;7389768;19;20097;-84
2022/09/11 06:46:23;;;;;;;41.53;17.20;;;;;;;17.76;100.00;101505.31;7391846;19;20018;-84
2022/09/11 06:48:51;;;;;;;41.70;17.15;;;;;;;17.76;100.00;101502.66;7391027;19;20412;-83
2022/09/11 06:51:20;;;;;;;37.13;15.90;;;;;;;17.77;100.00;101505.13;7392357;19;20010;-83
2022/09/11 06:53:51;;;;;;;40.08;15.95;;;;;;;17.78;100.00;101505.94;7389656;19;20006;-84
2022/09/11 06:56:19;;;;;;;33.15;15.43;;;;;;;17.80;100.00;101502.09;7393150;19;20011;-83
2022/09/11 06:58:47;;;;;;;31.25;14.65;;;;;;;17.83;100.00;101506.22;7385339;19;20451;-80
2022/09/11 07:01:17;;;;;;;29.95;13.90;;;;;;;17.83;100.00;101506.22;7390159;19;20018;-80
2022/09/11 07:03:46;;;;;;;29.75;14.70;;;;;;;17.83;100.00;101499.06;7387395;19;20032;-79
2022/09/11 07:06:16;;;;;;;30.13;13.98;;;;;;;17.85;100.00;101501.53;7390965;19;20011;-82
2022/09/11 07:08:50;;;;;;;31.60;14.80;;;;;;;17.85;100.00;101496.22;7388078;19;20018;-82
2022/09/11 07:11:18;;;;;;;32.22;14.15;;;;;;;17.86;100.00;101493.38;7389224;19;20084;-81
2022/09/11 07:13:46;;;;;;;32.22;14.95;;;;;;;17.90;100.00;101496.50;7385001;19;20345;-80
2022/09/11 07:16:13;;;;;;;27.88;13.77;;;;;;;17.90;100.00;101496.50;7389066;19;20035;-81
2022/09/11 07:18:43;;;;;;;27.13;13.73;;;;;;;17.90;100.00;101492.00;7388818;19;20014;-80
2022/09/11 07:21:15;;;;;;;31.80;13.68;;;;;;;17.92;100.00;101500.63;7390214;19;20021;-79
2022/09/11 07:23:47;;;;;;;28.92;12.82;;;;;;;17.94;99.97;101490.59;7387926;19;20066;-80
2022/09/11 07:26:15;;;;;;;33.50;14.00;;;;;;;17.95;100.00;101492.25;7389055;19;20461;-80
2022/09/11 07:28:43;;;;;;;33.70;15.40;;;;;;;17.96;99.96;101498.41;7389061;19;20074;-81
2022/09/11 07:31:13;;;;;;;27.65;13.38;;;;;;;17.99;99.86;101492.72;7389119;19;20022;-81
2022/09/11 07:33:47;;;;;;;30.58;13.10;;;;;;;18.03;99.84;101493.19;7387058;19;20019;-80
2022/09/11 07:36:18;;;;;;;30.13;13.15;;;;;;;18.05;100.00;101493.81;7389000;19;20018;-80
2022/09/11 07:38:47;;;;;;;29.00;12.55;;;;;;;18.06;99.67;101496.31;7383525;19;20018;-80
2022/09/11 07:41:16;;;;;;;28.63;13.25;;;;;;;18.08;99.89;101491.59;7388227;19;20139;-79
2022/09/11 07:43:44;;;;;;;25.17;12.15;;;;;;;18.11;99.78;101495.75;7387298;19;20026;-80
2022/09/11 07:46:12;;;;;;;33.88;13.73;;;;;;;18.14;99.56;101503.34;7387930;19;20377;-80
2022/09/11 07:48:41;;;;;;;28.92;13.90;;;;;;;18.18;99.59;101504.66;7386234;19;20042;-81
2022/09/11 07:51:12;;;;;;;24.65;12.45;;;;;;;18.18;99.60;101502.81;7390888;19;20351;-80
2022/09/11 07:53:43;;;;;;;27.45;12.60;;;;;;;18.22;99.32;101505.94;7388372;19;20017;-81
2022/09/11 07:56:13;;;;;;;27.25;12.57;;;;;;;18.25;99.18;101513.53;7388226;19;20370;-81
2022/09/11 07:58:42;;;;;;;24.73;13.45;;;;;;;18.28;99.03;101511.34;7384747;19;20081;-80
2022/09/11 08:01:12;;;;;;;28.15;12.38;;;;;;;18.33;99.21;101510.78;7388276;19;20340;-81
2022/09/11 08:03:41;;;;;;;30.15;14.45;;;;;;;18.35;98.93;101512.25;7386226;19;20102;-81
2022/09/11 08:06:12;;;;;;;28.45;15.18;;;;;;;18.41;99.14;101507.19;7389352;19;20488;-81
2022/09/11 08:08:45;;;;;;;23.60;13.20;;;;;;;18.44;98.97;101509.50;7385585;19;20018;-81
2022/09/11 08:11:16;;;;;;;26.13;13.30;;;;;;;18.46;98.11;101505.59;7388204;19;20014;-80
2022/09/11 08:13:49;;;;;;;26.98;13.73;;;;;;;18.49;98.71;101502.56;7384756;19;20015;-81
2022/09/11 08:16:18;;;;;;;25.55;13.68;;;;;;;18.51;98.36;101503.19;7388203;19;20010;-80
2022/09/11 08:18:47;;;;;;;29.25;13.85;;;;;;;18.55;98.22;101503.69;7386277;19;20018;-81
2022/09/11 08:21:15;;;;;;;24.63;14.63;;;;;;;18.56;98.14;101503.50;7388323;19;20547;-81
2022/09/11 08:23:44;;;;;;;26.83;14.57;;;;;;;18.59;98.23;101508.44;7386304;19;20015;-81
2022/09/11 08:26:14;;;;;;;23.77;14.30;;;;;;;18.64;98.32;101505.22;7386727;19;20018;-81
2022/09/11 08:28:43;;;;;;;28.20;14.95;;;;;;;18.66;98.12;101489.84;7383989;19;20020;-80
2022/09/11 08:31:12;;;;;;;25.05;13.93;;;;;;;18.69;97.99;101492.97;7387139;19;20035;-80
2022/09/11 08:33:40;;;;;;;27.15;14.23;;;;;;;18.74;97.85;101505.75;7386384;19;20010;-80
2022/09/11 08:36:09;;;;;;;20.88;12.25;;;;;;;18.77;97.39;101503.53;7388739;19;20016;-80
2022/09/11 08:38:37;;;;;;;21.95;13.48;;;;;;;18.82;97.72;101491.47;7387629;19;20086;-81
2022/09/11 08:41:10;;;;;;;23.05;13.35;;;;;;;18.84;97.42;101492.94;7388281;19;20015;-80
2022/09/11 08:43:49;;;;;;;21.42;12.98;;;;;;;18.90;97.27;101489.47;7383989;19;20015;-80
2022/09/11 08:46:20;;;;;;;19.88;11.70;;;;;;;18.94;96.71;101493.44;7388691;19;20098;-80
2022/09/11 08:48:54;;;;;;;22.85;12.20;;;;;;;18.97;96.39;101487.72;7385365;19;20030;-81
2022/09/11 08:51:22;;;;;;;23.65;13.45;;;;;;;19.04;96.19;101498.44;7390591;19;20461;-79
2022/09/11 08:53:50;;;;;;;20.13;11.65;;;;;;;19.07;95.62;101490.88;7387773;19;20303;-82
2022/09/11 08:56:21;;;;;;;25.58;14.60;;;;;;;19.13;96.01;101491.97;7388917;19;20034;-81
2022/09/11 08:58:54;;;;;;;19.55;11.60;;;;;;;19.18;96.02;101490.38;7386445;19;20018;-81
2022/09/11 09:01:24;;;;;;;20.58;10.95;;;;;;;19.25;95.60;101493.06;7388748;19;20526;-80
2022/09/11 09:03:58;;;;;;;20.45;11.45;;;;;;;19.28;95.03;101486.53;7385928;19;20380;-80
2022/09/11 09:06:38;;;;;;;20.48;10.63;;;;;;;19.29;95.20;101482.84;7386819;19;20032;-79
2022/09/11 09:09:14;;;;;;;20.13;11.05;;;;;;;19.29;94.78;101482.84;7386339;19;20067;-80
2022/09/11 09:11:54;;;;;;;18.83;10.93;;;;;;;19.31;94.59;101491.47;7386283;19;20014;-81
2022/09/11 09:14:28;;;;;;;19.70;11.95;;;;;;;19.32;94.55;101485.94;7384138;19;20018;-80
2022/09/11 09:16:59;;;;;;;22.35;11.68;;;;;;;19.34;94.67;101478.59;7385810;19;20006;-80
2022/09/11 09:19:35;;;;;;;17.88;10.82;;;;;;;19.36;94.62;101489.88;7383124;19;20018;-80
2022/09/11 09:22:09;;;;;;;21.60;12.70;;;;;;;19.38;94.33;101481.69;7386958;19;20014;-80
2022/09/11 09:24:44;;;;;;;18.10;11.85;;;;;;;19.40;94.90;101485.78;7385099;19;20077;-81
2022/09/11 09:27:18;;;;;;;21.20;11.65;;;;;;;19.46;94.38;101484.22;7380719;19;20010;-82
2022/09/11 09:29:51;;;;;;;23.02;12.57;;;;;;;19.53;94.49;101477.09;7385433;19;20296;-80
2022/09/11 09:32:26;;;;;;;22.50;13.07;;;;;;;19.59;94.30;101479.81;7385442;19;20063;-81
2022/09/11 09:35:00;;;;;;;20.38;11.55;;;;;;;19.66;93.75;101482.50;7385666;19;20031;-81
2022/09/11 09:37:27;;;;;;;19.67;10.88;;;;;;;19.70;93.74;101485.63;7385333;19;20472;-81
2022/09/11 09:39:55;;;;;;;17.35;10.07;;;;;;;19.75;93.38;101476.00;7385749;19;20015;-81
2022/09/11 09:42:27;;;;;;;17.45;9.77;;;;;;;19.82;92.55;101486.72;7382988;19;20019;-80
2022/09/11 09:45:02;;;;;;;15.75;9.93;;;;;;;19.92;91.44;101487.19;7384769;19;20361;-80
2022/09/11 09:47:31;;;;;;;14.63;8.40;;;;;;;19.98;91.83;101497.06;7384849;19;20019;-79
2022/09/11 09:49:59;;;;;;;15.93;9.57;;;;;;;20.03;91.80;101487.44;7385358;19;20113;-82
2022/09/11 09:52:34;;;;;;;9.40;5.28;;;;;;;20.08;90.61;101494.88;7384581;19;20011;-81
2022/09/11 09:55:06;;;;;;;11.32;6.65;;;;;;;20.16;89.80;101493.88;7385979;19;20015;-81
2022/09/11 09:57:35;;;;;;;11.10;5.78;;;;;;;20.24;88.76;101499.06;7381891;19;20018;-80
2022/09/11 10:00:05;;;;;;;10.98;6.75;;;;;;;20.28;88.34;101493.09;7384939;19;20083;-81
2022/09/11 10:02:39;;;;;;;9.82;5.50;;;;;;;20.35;87.38;101488.66;7385802;19;20404;-81
2022/09/11 10:05:13;;;;;;;14.05;7.53;;;;;;;20.37;86.65;101491.09;7382745;19;20355;-81
2022/09/11 10:07:47;;;;;;;10.65;5.78;;;;;;;20.39;86.93;101492.56;7385271;19;20018;-82
2022/09/11 10:10:20;;;;;;;10.38;5.25;;;;;;;20.41;86.75;101489.69;7385477;19;20015;-81
2022/09/11 10:12:48;;;;;;;10.02;5.57;;;;;;;20.44;86.92;101483.94;7384161;19;20424;-80
2022/09/11 10:15:21;;;;;;;11.55;5.35;;;;;;;20.48;86.97;101490.53;7386416;19;20443;-80
2022/09/11 10:17:49;;;;;;;10.18;4.85;;;;;;;20.53;86.15;101487.25;7385557;19;20019;-81
2022/09/11 10:20:17;;;;;;;7.72;4.63;;;;;;;20.55;85.44;101491.38;7385402;19;20010;-80
2022/09/11 10:22:45;;;;;;;20.13;13.52;;;;;;;20.58;85.28;101495.47;7384113;19;20021;-80
2022/09/11 10:25:14;;;;;;;9.93;5.53;;;;;;;20.62;86.54;101486.06;7386173;19;20046;-81
2022/09/11 10:27:50;;;;;;;10.70;4.90;;;;;;;20.67;86.47;101486.28;7381732;19;20859;-81
2022/09/11 10:30:24;;;;;;;4.63;3.28;;;;;;;20.71;85.51;101492.84;7386169;19;20373;-81
2022/09/11 10:32:52;;;;;;;10.00;4.28;;;;;;;20.75;83.98;101483.41;7383384;19;20011;-81
2022/09/11 10:35:22;;;;;;;4.38;2.10;;;;;;;20.79;82.40;101490.81;7385850;19;20018;-80
2022/09/11 10:38:04;;;;;;;5.88;1.90;;;;;;;20.84;81.31;101477.66;7384307;19;20014;-82
2022/09/11 10:40:31;;;;;;;2.60;1.98;;;;;;;20.87;80.41;101479.94;7385082;19;20480;-81
2022/09/11 10:42:59;;;;;;;5.13;1.77;;;;;;;20.92;80.12;101480.13;7380717;19;20022;-80
2022/09/11 10:45:26;;;;;;;5.18;1.50;;;;;;;20.96;80.14;101471.69;7383949;19;20364;-81
2022/09/11 10:47:53;;;;;;;4.93;1.70;;;;;;;21.00;79.94;101471.06;7381616;19;20025;-81
2022/09/11 10:50:23;;;;;;;5.68;1.95;;;;;;;21.05;80.03;101473.13;7388606;19;20014;-80
2022/09/11 10:52:56;;;;;;;4.45;1.35;;;;;;;21.04;79.09;101474.16;7386152;19;20024;-80
2022/09/11 10:55:30;;;;;;;5.05;1.38;;;;;;;21.06;78.75;101466.75;7387120;19;20387;-83
2022/09/11 10:58:06;;;;;;;8.35;2.33;;;;;;;21.04;77.81;101476.81;7385978;19;20010;-81
2022/09/11 11:00:34;;;;;;;3.80;1.98;;;;;;;21.06;78.71;101472.09;7386515;19;20020;-81
2022/09/11 11:03:09;;;;;;;3.55;1.33;;;;;;;21.09;79.08;101466.31;7384662;19;20104;-81
2022/09/11 11:05:40;;;;;;;4.25;1.70;;;;;;;21.09;78.53;101469.84;7383640;19;20110;-80
2022/09/11 11:08:14;;;;;;;4.22;1.70;;;;;;;21.07;78.18;101466.56;7385171;19;20039;-79
2022/09/11 11:10:50;;;;;;;3.80;1.95;;;;;;;21.07;78.23;101468.41;7386298;19;20015;-78
2022/09/11 11:13:22;;;;;;;5.78;1.40;;;;;;;21.06;78.12;101467.59;7370259;19;20010;-80
2022/09/11 11:15:56;;;;;;;2.80;1.35;;;;;;;21.07;77.81;101469.22;7366773;19;20015;-80
2022/09/11 11:18:30;;;;;;;3.72;2.08;;;;;;;21.07;78.51;101463.88;7379561;19;20018;-81
2022/09/11 11:20:59;;;;;;;6.22;2.47;;;;;;;21.06;78.20;101456.03;7386608;19;20040;-81
2022/09/11 11:23:30;;;;;;;5.03;2.25;;;;;;;21.08;77.53;101467.38;7384660;19;20074;-82
2022/09/11 11:26:01;;;;;;;4.45;2.00;;;;;;;21.06;77.63;101464.91;7386539;19;20043;-82
2022/09/11 11:28:32;;;;;;;4.82;2.05;;;;;;;21.06;78.03;101459.56;7381726;19;20090;-80